Aérodrome :
LOGIN :

S'inscrire | Disclaimer

   EN    FR    IT 

 










Légende :    VFR   VFR Marginal   IFR   IFR Intensif   IFR Très Intensif
Visi : 
Plafond : 
>= 8 km
>= 3000ft
5 à 8 km
1000 à 3000 ft
1500m à 5 km
500 à 1000 ft
800 à 1500m
200 à 500 ft
< 800m
< 200 ft
Symboles :   Orages  Brouillard  Fortes neiges  Fortes précipitations  Vent > 20 kt
SIGMETs :   Divers  Orages  Givrage  Turbulence  Onde Orograph.  Cendres Volcan.







- Altitude de l'aérodrome : 13 ft
- Code IATA : OST


EBOS - Oostend bruges Int.

DERNIER METAR :
  • 181720Z 21005KT 9999 FEW023 BKN048 06/03 Q1002 TEMPO 28020G35KT 4000 SHRA SCT014CB

METARs EXPIRÉS :
  • 181650Z 23006KT 9999 FEW022 BKN048 06/02 Q1002 TEMPO 28020G35KT 4000 SHRA SCT014CB
  • 181620Z 28010KT 9999 FEW022 BKN048 07/02 Q1002 TEMPO 28020G35KT 4000 SHRA SCT014CB
  • 181550Z 28009KT 9999 FEW022 SCT048 07/03 Q1002 TEMPO 28020G30KT 4000 SHRA BKN014CB
  • 181520Z 28008KT 9999 FEW022 SCT039 07/03 Q1003 TEMPO 28020G30KT 4000 SHRA BKN014CB
  • 181450Z 27012KT 9999 FEW022 SCT041 07/02 Q1002 TEMPO 28020G30KT 4000 SHRA BKN014CB

TAF TAF EBOS
Valide du 18 à 18h jusqu'au 20 à 00h UTC


181711Z 1818/1924 28020G35KT 9999 SCT020
TEMPO 1818/1904 4000 SHRA SCT008 BKN014CB
PROB30
TEMPO 1818/1904 2500 SHRAGS
BECMG 1903/1905 27015G25KT
PROB30
TEMPO 1916/1921 4000 SHRA
Pas de NOTAMs connus pour ce terrain.



MET'MAP, la Météo Aéronautique d'un coup d'oeil ! - Copyright ORBIFLY Décembre 2007 - Disclaimer

ORBIFLY MET'MAP TEAM :

Programmation & Développement : Alexandra Zaïnal
Conception & Développement : Baudouin d'Aumeries
Co-Programmation & Développement : Marc-Olivier Méhu
Soutien technique & logistique : Manuel Goepfert

Contact : metmap@orbifly.com




SOURCES & CREDITS :

   NOAA